Time;durP1;ratioP1;P1;durP2;ratioP2;P2;SDS_P1;SDS_P2;PMS_P1;PMS_P2;Temp;Humidity;BMP_temperature;BMP_pressure;BME280_temperature;BME280_humidity;BME280_pressure;Samples;Min_cycle;Max_cycle;Signal;HPM_P1;HPM_P2
2023/05/31 00:00:16;;;;;;;;;;;;;;;14.02;100.00;99713.41;5032202;28;859;-55
2023/05/31 00:02:42;;;;;;;;;;;;;;;13.99;100.00;99721.78;5032251;28;903;-55
2023/05/31 00:05:10;;;;;;;;;;;;;;;13.94;100.00;99719.53;5032187;28;852;-56
2023/05/31 00:07:36;;;;;;;;;;;;;;;13.87;100.00;99712.91;5032165;28;855;-55
2023/05/31 00:10:04;;;;;;;;;;;;;;;13.83;100.00;99716.97;5032317;28;938;-55
2023/05/31 00:12:31;;;;;;;;;;;;;;;13.80;100.00;99706.69;5031848;28;1278;-55
2023/05/31 00:14:57;;;;;;;;;;;;;;;13.80;100.00;99713.03;5031992;28;1977;-55
2023/05/31 00:17:24;;;;;;;;;;;;;;;13.83;100.00;99714.97;5032018;28;816;-55
2023/05/31 00:19:52;;;;;;;;;;;;;;;13.88;100.00;99711.69;5031993;28;1013;-55
2023/05/31 00:22:19;;;;;;;;;;;;;;;13.93;100.00;99715.16;5031851;28;827;-55
2023/05/31 00:24:46;;;;;;;;;;;;;;;13.94;100.00;99719.53;5031951;28;796;-55
2023/05/31 00:27:12;;;;;;;;;;;;;;;13.92;100.00;99716.41;5032003;28;871;-56
2023/05/31 00:29:39;;;;;;;;;;;;;;;13.88;100.00;99716.47;5030504;28;864;-55
2023/05/31 00:32:06;;;;;;;;;;;;;;;13.83;100.00;99712.19;5031848;28;843;-54
2023/05/31 00:34:33;;;;;;;;;;;;;;;13.81;100.00;99709.06;5031703;28;1947;-55
2023/05/31 00:36:59;;;;;;;;;;;;;;;13.78;100.00;99718.22;5031701;28;832;-55
2023/05/31 00:39:27;;;;;;;;;;;;;;;13.76;100.00;99717.09;5031839;28;856;-54
2023/05/31 00:41:55;;;;;;;;;;;;;;;13.74;100.00;99713.94;5031677;28;816;-55
2023/05/31 00:44:22;;;;;;;;;;;;;;;13.70;100.00;99714.03;5031527;28;875;-55
2023/05/31 00:46:49;;;;;;;;;;;;;;;13.69;100.00;99723.56;5031631;28;848;-54
2023/05/31 00:49:16;;;;;;;;;;;;;;;13.66;100.00;99719.66;5031517;28;918;-55
2023/05/31 00:51:43;;;;;;;;;;;;;;;13.62;100.00;99716.16;5031546;28;848;-55
2023/05/31 00:54:10;;;;;;;;;;;;;;;13.55;100.00;99718.25;5031431;28;1890;-55
2023/05/31 00:56:37;;;;;;;;;;;;;;;13.51;100.00;99714.81;5031621;28;872;-55
2023/05/31 00:59:04;;;;;;;;;;;;;;;13.50;100.00;99722.31;5031524;28;844;-56
2023/05/31 01:01:34;;;;;;;;;;;;;;;13.46;100.00;99711.31;5031361;28;860;-55
2023/05/31 01:04:02;;;;;;;;;;;;;;;13.43;100.00;99722.47;5031413;28;872;-55
2023/05/31 01:06:34;;;;;;;;;;;;;;;13.45;100.00;99712.50;5031379;28;878;-55
2023/05/31 01:09:04;;;;;;;;;;;;;;;13.44;100.00;99718.47;5031374;28;1042;-55
2023/05/31 01:11:37;;;;;;;;;;;;;;;13.42;100.00;99721.69;5031336;28;894;-55
2023/05/31 01:14:23;;;;;;;;;;;;;;;13.43;100.00;99716.91;5031075;28;1894;-54
2023/05/31 01:16:54;;;;;;;;;;;;;;;13.49;100.00;99709.66;5031536;28;859;-55
2023/05/31 01:19:46;;;;;;;;;;;;;;;13.48;100.00;99708.88;5031221;28;845;-55
2023/05/31 01:22:20;;;;;;;;;;;;;;;13.49;100.00;99704.09;5031215;28;922;-55
2023/05/31 01:24:53;;;;;;;;;;;;;;;13.47;100.00;99704.53;5031113;28;827;-55
2023/05/31 01:27:21;;;;;;;;;;;;;;;13.40;100.00;99712.19;5030130;28;848;-55
2023/05/31 01:29:48;;;;;;;;;;;;;;;13.36;100.00;99700.38;5031150;28;860;-55
2023/05/31 01:32:16;;;;;;;;;;;;;;;13.37;100.00;99701.94;5031192;28;819;-55
2023/05/31 01:34:46;;;;;;;;;;;;;;;13.37;100.00;99705.50;5031048;28;2014;-55
2023/05/31 01:37:13;;;;;;;;;;;;;;;13.37;100.00;99707.50;5031055;28;859;-55
2023/05/31 01:39:40;;;;;;;;;;;;;;;13.36;100.00;99703.16;5031076;28;848;-55
2023/05/31 01:42:08;;;;;;;;;;;;;;;13.34;100.00;99716.69;5031058;28;894;-55
2023/05/31 01:44:36;;;;;;;;;;;;;;;13.34;100.00;99708.34;5031048;28;804;-55
2023/05/31 01:47:03;;;;;;;;;;;;;;;13.32;100.00;99711.53;5031062;28;824;-55
2023/05/31 01:49:30;;;;;;;;;;;;;;;13.29;100.00;99715.16;5030938;28;891;-55
2023/05/31 01:51:58;;;;;;;;;;;;;;;13.30;100.00;99704.84;5030948;28;878;-55
2023/05/31 01:54:25;;;;;;;;;;;;;;;13.28;100.00;99708.03;5029482;28;2099;-55
2023/05/31 01:56:52;;;;;;;;;;;;;;;13.29;100.00;99706.81;5030962;28;812;-55
2023/05/31 01:59:19;;;;;;;;;;;;;;;13.27;100.00;99709.22;5033061;28;898;-55
2023/05/31 02:01:46;;;;;;;;;;;;;;;13.25;100.00;99714.44;5034413;28;906;-55
2023/05/31 02:04:16;;;;;;;;;;;;;;;13.21;100.00;99719.25;5033335;28;816;-55
2023/05/31 02:06:43;;;;;;;;;;;;;;;13.18;100.00;99711.75;5034412;28;820;-55
2023/05/31 02:09:10;;;;;;;;;;;;;;;13.13;100.00;99715.81;5034537;28;873;-55
2023/05/31 02:11:37;;;;;;;;;;;;;;;13.13;100.00;99710.25;5034383;28;801;-55
2023/05/31 02:14:04;;;;;;;;;;;;;;;13.07;100.00;99712.72;5033147;28;1960;-55
2023/05/31 02:16:31;;;;;;;;;;;;;;;13.01;100.00;99716.38;5034219;28;816;-55
2023/05/31 02:18:58;;;;;;;;;;;;;;;12.91;100.00;99714.56;5034155;28;868;-55
2023/05/31 02:21:26;;;;;;;;;;;;;;;12.82;100.00;99713.13;5034115;28;1157;-55
2023/05/31 02:23:54;;;;;;;;;;;;;;;12.75;100.00;99715.22;5034019;28;824;-55
2023/05/31 02:26:21;;;;;;;;;;;;;;;12.71;100.00;99715.25;5034089;28;848;-55
2023/05/31 02:28:47;;;;;;;;;;;;;;;12.67;100.00;99714.53;5034006;28;851;-55
2023/05/31 02:31:14;;;;;;;;;;;;;;;12.69;100.00;99716.91;5034035;28;926;-55
2023/05/31 02:33:44;;;;;;;;;;;;;;;12.71;100.00;99715.25;5033879;28;920;-56
2023/05/31 02:36:11;;;;;;;;;;;;;;;12.75;100.00;99713.22;5033925;28;859;-55
2023/05/31 02:38:39;;;;;;;;;;;;;;;12.82;100.00;99718.69;5033859;28;882;-55
2023/05/31 02:41:06;;;;;;;;;;;;;;;12.94;100.00;99722.06;5033904;28;792;-55
2023/05/31 02:43:32;;;;;;;;;;;;;;;13.00;100.00;99723.16;5033723;28;895;-56
2023/05/31 02:46:01;;;;;;;;;;;;;;;13.05;100.00;99731.00;5033730;28;828;-55
2023/05/31 02:48:29;;;;;;;;;;;;;;;13.10;100.00;99724.97;5033585;28;819;-56
2023/05/31 02:50:56;;;;;;;;;;;;;;;13.14;100.00;99722.91;5033611;28;831;-56
2023/05/31 02:53:23;;;;;;;;;;;;;;;13.17;100.00;99733.19;5032297;28;860;-55
2023/05/31 02:55:51;;;;;;;;;;;;;;;13.19;100.00;99736.31;5033379;28;1890;-55
2023/05/31 02:58:18;;;;;;;;;;;;;;;13.18;100.00;99740.28;5033814;28;867;-55
2023/05/31 03:00:44;;;;;;;;;;;;;;;13.17;100.00;99733.19;5033434;28;938;-55
2023/05/31 03:03:12;;;;;;;;;;;;;;;13.20;100.00;99737.88;5033493;28;1001;-55
2023/05/31 03:05:39;;;;;;;;;;;;;;;13.25;100.00;99736.63;5033343;28;859;-55
2023/05/31 03:08:06;;;;;;;;;;;;;;;13.28;100.00;99738.56;5033933;28;772;-55
2023/05/31 03:10:33;;;;;;;;;;;;;;;13.31;100.00;99734.94;5032620;28;1014;-55
2023/05/31 03:13:00;;;;;;;;;;;;;;;13.32;100.00;99739.31;5033445;28;1419;-55
2023/05/31 03:15:28;;;;;;;;;;;;;;;13.31;100.00;99743.28;5033497;28;1950;-55
2023/05/31 03:17:55;;;;;;;;;;;;;;;13.33;100.00;99742.84;5033374;28;816;-55
2023/05/31 03:20:22;;;;;;;;;;;;;;;13.35;100.00;99740.44;5033315;28;883;-55
2023/05/31 03:22:49;;;;;;;;;;;;;;;13.38;100.00;99743.16;5033131;28;896;-55
2023/05/31 03:25:16;;;;;;;;;;;;;;;13.44;100.00;99749.81;5033487;28;832;-55
2023/05/31 03:27:43;;;;;;;;;;;;;;;13.51;100.00;99750.91;5033158;28;863;-55
2023/05/31 03:30:10;;;;;;;;;;;;;;;13.56;100.00;99750.41;5033139;28;855;-55
2023/05/31 03:32:37;;;;;;;;;;;;;;;13.64;100.00;99744.28;5033166;28;875;-55
2023/05/31 03:35:04;;;;;;;;;;;;;;;13.74;100.00;99741.72;5033006;28;1886;-55
2023/05/31 03:37:31;;;;;;;;;;;;;;;14.24;100.00;99749.09;5032913;28;903;-55
2023/05/31 03:39:58;;;;;;;;;;;;;;;15.34;100.00;99753.38;5033210;28;888;-55
2023/05/31 03:42:25;;;;;;;;;;;;;;;16.25;100.00;99750.53;5032884;28;855;-55
2023/05/31 03:44:52;;;;;;;;;;;;;;;16.92;100.00;99746.16;5032815;28;899;-55
2023/05/31 03:47:20;;;;;;;;;;;;;;;17.37;100.00;99747.09;5032816;28;1040;-54
2023/05/31 03:52:51;;;;;;;;;;;;;;;17.93;100.00;99761.13;5023860;28;1146;-54
2023/05/31 03:55:20;;;;;;;;;;;;;;;18.06;100.00;99761.06;5032314;28;1943;-55
2023/05/31 03:57:47;;;;;;;;;;;;;;;18.16;100.00;99767.53;5032404;28;843;-55
2023/05/31 04:00:12;;;;;;;;;;;;;;;18.26;100.00;99766.31;5032247;28;911;-53
2023/05/31 04:02:45;;;;;;;;;;;;;;;18.41;100.00;99777.78;5032304;28;812;-54
2023/05/31 04:05:12;;;;;;;;;;;;;;;18.50;100.00;99777.84;5031030;28;1320;-54
2023/05/31 04:07:39;;;;;;;;;;;;;;;18.57;100.00;99779.59;5032222;28;871;-55
2023/05/31 04:10:07;;;;;;;;;;;;;;;18.63;100.00;99776.97;5032353;28;919;-55
2023/05/31 04:12:34;;;;;;;;;;;;;;;18.67;100.00;99777.59;5032075;28;1553;-55
2023/05/31 04:15:01;;;;;;;;;;;;;;;18.74;100.00;99768.94;5032021;28;1914;-55
2023/05/31 04:17:29;;;;;;;;;;;;;;;18.85;100.00;99780.53;5030756;28;1314;-55
2023/05/31 04:19:56;;;;;;;;;;;;;;;18.96;100.00;99777.31;5031999;28;808;-55
2023/05/31 04:22:23;;;;;;;;;;;;;;;19.11;100.00;99774.72;5031534;28;816;-55
2023/05/31 04:24:50;;;;;;;;;;;;;;;19.25;100.00;99781.75;5031967;28;828;-55
2023/05/31 04:27:18;;;;;;;;;;;;;;;19.36;100.00;99784.91;5031925;28;863;-55
2023/05/31 04:29:45;;;;;;;;;;;;;;;19.47;100.00;99785.22;5031744;28;824;-54
2023/05/31 04:32:15;;;;;;;;;;;;;;;19.59;100.00;99791.97;5031948;28;863;-54
2023/05/31 04:34:42;;;;;;;;;;;;;;;19.69;100.00;99790.69;5031603;28;1894;-55
2023/05/31 04:37:10;;;;;;;;;;;;;;;19.76;100.00;99796.06;5031762;28;821;-55
2023/05/31 04:39:38;;;;;;;;;;;;;;;19.85;100.00;99794.50;5031980;28;835;-53
2023/05/31 04:42:05;;;;;;;;;;;;;;;20.01;100.00;99793.41;5031641;28;821;-54
2023/05/31 04:44:32;;;;;;;;;;;;;;;20.19;100.00;99796.22;5030329;28;1191;-54
2023/05/31 04:46:59;;;;;;;;;;;;;;;20.27;100.00;99794.66;5031647;28;808;-54
2023/05/31 04:49:27;;;;;;;;;;;;;;;20.29;100.00;99794.16;5031556;28;863;-53
2023/05/31 04:51:54;;;;;;;;;;;;;;;20.36;100.00;99797.44;5031422;28;938;-53
2023/05/31 04:54:21;;;;;;;;;;;;;;;20.45;100.00;99804.28;5031747;28;1890;-52
2023/05/31 04:56:48;;;;;;;;;;;;;;;20.53;100.00;99800.69;5031490;28;828;-54
2023/05/31 04:59:15;;;;;;;;;;;;;;;20.64;100.00;99793.81;5031557;28;856;-53
2023/05/31 05:01:44;;;;;;;;;;;;;;;20.73;100.00;99802.22;5030171;28;1370;-54
2023/05/31 05:04:11;;;;;;;;;;;;;;;20.84;100.00;99810.13;5031390;28;866;-54
2023/05/31 05:06:41;;;;;;;;;;;;;;;20.94;100.00;99812.44;5031415;28;819;-55
2023/05/31 05:09:09;;;;;;;;;;;;;;;21.03;100.00;99813.66;5031336;28;1061;-54
2023/05/31 05:11:35;;;;;;;;;;;;;;;21.14;100.00;99814.69;5031313;28;1107;-54
2023/05/31 05:14:03;;;;;;;;;;;;;;;21.35;100.00;99818.47;5031070;28;1898;-54
2023/05/31 05:16:30;;;;;;;;;;;;;;;21.53;100.00;99814.03;5031292;28;946;-55
2023/05/31 05:18:57;;;;;;;;;;;;;;;21.67;100.00;99809.75;5031515;28;828;-54
2023/05/31 05:21:24;;;;;;;;;;;;;;;21.82;100.00;99813.38;5031152;28;875;-54
2023/05/31 05:23:52;;;;;;;;;;;;;;;21.90;100.00;99822.25;5031224;28;848;-54
2023/05/31 05:26:18;;;;;;;;;;;;;;;22.05;100.00;99811.78;5031180;28;871;-55
2023/05/31 05:28:45;;;;;;;;;;;;;;;22.22;100.00;99827.00;5031163;28;844;-53
2023/05/31 05:31:12;;;;;;;;;;;;;;;22.42;100.00;99822.75;5031424;28;823;-54
2023/05/31 05:33:40;;;;;;;;;;;;;;;22.46;100.00;99819.75;5032297;28;817;-53
2023/05/31 05:36:07;;;;;;;;;;;;;;;22.57;100.00;99823.53;5035000;28;1951;-54
2023/05/31 05:38:34;;;;;;;;;;;;;;;22.78;100.00;99827.22;5034932;28;908;-55
2023/05/31 05:41:01;;;;;;;;;;;;;;;23.05;100.00;99830.25;5034881;28;917;-55
2023/05/31 05:43:30;;;;;;;;;;;;;;;23.21;100.00;99830.53;5034859;28;860;-54
2023/05/31 05:45:57;;;;;;;;;;;;;;;23.22;100.00;99828.47;5035159;28;788;-55
2023/05/31 05:48:24;;;;;;;;;;;;;;;23.13;100.00;99832.19;5035054;28;834;-54
2023/05/31 05:50:51;;;;;;;;;;;;;;;23.06;100.00;99831.81;5033788;28;1211;-53
2023/05/31 05:53:18;;;;;;;;;;;;;;;22.97;100.00;99827.03;5035002;28;871;-53
2023/05/31 05:55:54;;;;;;;;;;;;;;;23.10;100.00;99830.31;5034650;28;1914;-55
2023/05/31 05:58:21;;;;;;;;;;;;;;;23.21;100.00;99833.34;5034564;28;915;-54
2023/05/31 06:00:48;;;;;;;;;;;;;;;23.39;100.00;99845.63;5034531;28;856;-54
2023/05/31 06:03:15;;;;;;;;;;;;;;;23.70;100.00;99842.22;5034577;28;848;-53
2023/05/31 06:05:42;;;;;;;;;;;;;;;23.81;100.00;99842.41;5034398;28;947;-54
2023/05/31 06:08:11;;;;;;;;;;;;;;;24.22;100.00;99842.38;5034339;28;927;-55
2023/05/31 06:10:40;;;;;;;;;;;;;;;24.70;100.00;99843.91;5034696;28;979;-55
2023/05/31 06:13:06;;;;;;;;;;;;;;;25.18;100.00;99839.69;5034069;28;1325;-55
2023/05/31 06:15:34;;;;;;;;;;;;;;;25.33;100.00;99842.34;5034172;28;1922;-55
2023/05/31 06:18:01;;;;;;;;;;;;;;;25.52;100.00;99842.72;5034238;28;816;-53
2023/05/31 06:20:27;;;;;;;;;;;;;;;25.55;100.00;99845.34;5034116;28;870;-53
2023/05/31 06:22:55;;;;;;;;;;;;;;;25.57;99.84;99834.28;5034326;28;891;-55
2023/05/31 06:25:22;;;;;;;;;;;;;;;25.61;100.00;99837.66;5034056;28;964;-55
2023/05/31 06:27:49;;;;;;;;;;;;;;;25.73;100.00;99832.81;5034093;28;851;-55
2023/05/31 06:30:16;;;;;;;;;;;;;;;25.88;100.00;99838.28;5033953;28;861;-56
2023/05/31 06:32:42;;;;;;;;;;;;;;;26.17;97.31;99842.03;5033999;28;886;-56
2023/05/31 06:35:09;;;;;;;;;;;;;;;26.50;96.95;99841.34;5034041;28;1890;-55
2023/05/31 06:37:37;;;;;;;;;;;;;;;26.93;95.69;99840.34;5033882;28;903;-55
2023/05/31 06:40:04;;;;;;;;;;;;;;;27.48;93.90;99847.28;5033877;28;863;-56
2023/05/31 06:42:31;;;;;;;;;;;;;;;28.55;78.24;99857.47;5033812;28;874;-56
2023/05/31 06:44:59;;;;;;;;;;;;;;;28.95;73.83;99855.09;5033706;28;827;-56
2023/05/31 06:47:26;;;;;;;;;;;;;;;28.97;67.93;99856.09;5033737;28;871;-56
2023/05/31 06:49:53;;;;;;;;;;;;;;;29.18;65.67;99850.03;5033620;28;855;-57
2023/05/31 06:52:20;;;;;;;;;;;;;;;29.70;62.75;99851.81;5033554;28;874;-56
2023/05/31 06:54:46;;;;;;;;;;;;;;;29.93;61.65;99853.09;5033560;28;1979;-56
2023/05/31 06:57:13;;;;;;;;;;;;;;;30.32;60.13;99843.31;5033514;28;840;-55
2023/05/31 07:11:51;;;;;;;;;;;;;;;30.08;54.11;99854.72;5033385;28;1262;-55
2023/05/31 07:14:18;;;;;;;;;;;;;;;30.43;53.91;99844.44;5033162;28;1907;-55
2023/05/31 07:16:44;;;;;;;;;;;;;;;30.61;52.32;99849.34;5033126;28;851;-56
2023/05/31 07:19:11;;;;;;;;;;;;;;;30.70;44.71;99854.66;5033044;28;879;-55
2023/05/31 07:21:38;;;;;;;;;;;;;;;30.92;43.67;99858.50;5033064;28;857;-54
2023/05/31 07:24:05;;;;;;;;;;;;;;;31.24;44.04;99854.81;5033042;28;879;-55
2023/05/31 07:26:32;;;;;;;;;;;;;;;31.83;41.92;99860.50;5032921;28;821;-55
2023/05/31 07:28:58;;;;;;;;;;;;;;;32.21;42.00;99852.44;5032973;28;992;-54
2023/05/31 07:31:25;;;;;;;;;;;;;;;31.92;40.95;99857.16;5032892;28;839;-55
2023/05/31 07:33:52;;;;;;;;;;;;;;;31.98;41.87;99859.91;5032864;28;904;-55
2023/05/31 07:36:19;;;;;;;;;;;;;;;32.74;40.93;99855.13;5032831;28;891;-54
2023/05/31 07:38:46;;;;;;;;;;;;;;;33.01;37.87;99857.88;5032857;28;820;-53
2023/05/31 07:41:13;;;;;;;;;;;;;;;32.65;37.06;99854.88;5032628;28;955;-53
2023/05/31 07:43:41;;;;;;;;;;;;;;;32.29;37.48;99855.38;5032666;28;812;-49
2023/05/31 07:46:08;;;;;;;;;;;;;;;33.18;36.11;99859.53;5032657;28;797;-52
2023/05/31 07:48:35;;;;;;;;;;;;;;;33.08;36.26;99856.44;5031132;28;2288;-51
2023/05/31 07:51:02;;;;;;;;;;;;;;;32.60;37.06;99852.88;5032560;28;966;-54
2023/05/31 07:53:28;;;;;;;;;;;;;;;33.07;36.33;99852.00;5032427;28;904;-54
2023/05/31 07:55:55;;;;;;;;;;;;;;;33.13;35.65;99850.53;5031878;28;1882;-53
2023/05/31 07:58:22;;;;;;;;;;;;;;;33.17;34.01;99858.03;5032311;28;895;-55
2023/05/31 08:00:51;;;;;;;;;;;;;;;33.62;32.20;99851.88;5032402;28;828;-52
2023/05/31 08:03:18;;;;;;;;;;;;;;;33.69;29.42;99856.91;5032229;28;860;-52
2023/05/31 08:05:48;;;;;;;;;;;;;;;33.57;29.85;99858.50;5032259;28;871;-54
2023/05/31 08:08:15;;;;;;;;;;;;;;;33.50;28.14;99859.22;5032333;28;895;-55
2023/05/31 08:10:42;;;;;;;;;;;;;;;33.43;27.87;99852.09;5032500;28;939;-54
2023/05/31 08:13:09;;;;;;;;;;;;;;;33.64;27.58;99849.22;5031768;28;1247;-54
2023/05/31 08:15:36;;;;;;;;;;;;;;;33.83;27.40;99857.53;5032034;28;1910;-55
2023/05/31 08:18:03;;;;;;;;;;;;;;;33.83;27.87;99859.63;5031847;28;890;-55
2023/05/31 08:20:30;;;;;;;;;;;;;;;34.06;27.99;99859.75;5030701;28;1403;-54
2023/05/31 08:22:57;;;;;;;;;;;;;;;34.05;26.14;99861.84;5031974;28;906;-55
2023/05/31 08:25:24;;;;;;;;;;;;;;;33.96;25.35;99856.63;5031899;28;868;-55
2023/05/31 08:27:51;;;;;;;;;;;;;;;34.21;25.94;99871.31;5031881;28;900;-54
2023/05/31 08:30:18;;;;;;;;;;;;;;;33.73;26.22;99867.97;5031854;28;840;-54
2023/05/31 08:32:45;;;;;;;;;;;;;;;33.70;26.03;99858.41;5031914;28;895;-54
2023/05/31 08:35:12;;;;;;;;;;;;;;;33.68;26.18;99861.09;5031725;28;1949;-54
2023/05/31 08:37:38;;;;;;;;;;;;;;;33.28;27.08;99861.34;5031767;28;812;-54
2023/05/31 08:40:06;;;;;;;;;;;;;;;33.11;28.25;99878.97;5031681;28;869;-54
2023/05/31 08:42:33;;;;;;;;;;;;;;;33.27;26.16;99873.38;5031665;28;918;-55
2023/05/31 08:45:00;;;;;;;;;;;;;;;32.42;26.61;99868.88;5030407;28;1298;-55
2023/05/31 08:47:31;;;;;;;;;;;;;;;32.78;26.62;99862.63;5031545;28;895;-56
2023/05/31 08:49:58;;;;;;;;;;;;;;;31.74;27.87;99861.69;5031527;28;862;-56
2023/05/31 08:52:25;;;;;;;;;;;;;;;32.28;28.46;99854.59;5031572;28;852;-56
2023/05/31 08:54:53;;;;;;;;;;;;;;;32.05;27.95;99850.69;5031377;28;1946;-55
2023/05/31 08:57:20;;;;;;;;;;;;;;;32.11;27.78;99845.63;5031490;28;883;-55
2023/05/31 08:59:47;;;;;;;;;;;;;;;32.15;29.92;99848.94;5031435;28;819;-55
2023/05/31 09:02:16;;;;;;;;;;;;;;;32.58;28.68;99847.72;5031431;28;847;-54
2023/05/31 09:04:41;;;;;;;;;;;;;;;32.60;28.77;99852.88;5031360;28;878;-50
2023/05/31 09:07:08;;;;;;;;;;;;;;;32.26;26.37;99848.69;5031409;28;847;-55
2023/05/31 09:09:35;;;;;;;;;;;;;;;32.27;28.09;99838.03;5034316;28;1018;-53
2023/05/31 09:12:02;;;;;;;;;;;;;;;32.41;28.73;99841.59;5035182;28;1326;-55
2023/05/31 09:14:30;;;;;;;;;;;;;;;32.29;26.75;99841.84;5035351;28;1917;-55
2023/05/31 09:16:56;;;;;;;;;;;;;;;32.34;27.56;99835.22;5035304;28;828;-54
2023/05/31 09:19:23;;;;;;;;;;;;;;;32.13;28.33;99846.63;5035391;28;933;-54
2023/05/31 09:21:51;;;;;;;;;;;;;;;32.00;28.08;99832.34;5035248;28;860;-55
2023/05/31 09:24:19;;;;;;;;;;;;;;;31.74;29.14;99839.59;5035283;28;911;-53
2023/05/31 09:26:49;;;;;;;;;;;;;;;31.49;27.26;99832.59;5035417;28;949;-53
2023/05/31 09:29:17;;;;;;;;;;;;;;;31.43;29.65;99835.56;5035683;28;768;-55
2023/05/31 09:31:44;;;;;;;;;;;;;;;31.34;28.12;99822.47;5035321;28;875;-55
2023/05/31 09:34:27;;;;;;;;;;;;;;;31.39;28.01;99846.50;5035203;28;1957;-55
2023/05/31 09:36:57;;;;;;;;;;;;;;;31.05;28.03;99854.91;5035260;28;941;-54
2023/05/31 09:39:25;;;;;;;;;;;;;;;30.36;28.67;99853.59;5035867;28;769;-54
2023/05/31 10:10:41;;;;;;;;;;;;;;;29.85;31.87;99837.94;6014656;22;1687;-65
2023/05/31 10:13:11;;;;;;;;;;;;;;;30.24;31.43;99835.88;4995089;28;847;-65
2023/05/31 10:15:37;;;;;;;;;;;;;;;30.38;31.28;99831.03;4994980;28;1985;-63
2023/05/31 10:18:11;;;;;;;;;;;;;;;30.29;30.53;99832.19;4994996;28;820;-63
2023/05/31 10:20:39;;;;;;;;;;;;;;;30.13;30.14;99828.25;4994360;28;879;-63
2023/05/31 10:23:09;;;;;;;;;;;;;;;30.02;30.79;99828.38;4994826;28;824;-62
2023/05/31 10:25:44;;;;;;;;;;;;;;;30.12;31.26;99818.91;4995082;28;832;-64
2023/05/31 10:28:15;;;;;;;;;;;;;;;30.35;31.02;99827.19;4993503;28;1296;-63
2023/05/31 10:30:43;;;;;;;;;;;;;;;30.58;31.99;99813.38;4994785;28;863;-62
2023/05/31 10:33:14;;;;;;;;;;;;;;;30.25;32.63;99809.66;4994696;28;812;-63
2023/05/31 10:35:41;;;;;;;;;;;;;;;29.64;34.09;99797.00;4994535;28;1926;-65
2023/05/31 10:38:08;;;;;;;;;;;;;;;28.79;34.06;99799.91;4994569;28;892;-65
2023/05/31 10:40:38;;;;;;;;;;;;;;;28.31;35.64;99802.03;4994453;28;891;-63
2023/05/31 10:43:17;;;;;;;;;;;;;;;29.00;35.22;99805.94;4995071;28;750;-63
2023/05/31 10:48:54;;;;;;;;;;;;;;;29.16;35.46;99796.47;4994527;28;608;-64
2023/05/31 10:51:37;;;;;;;;;;;;;;;29.93;35.05;99786.81;4994380;28;836;-63
2023/05/31 10:54:04;;;;;;;;;;;;;;;31.08;33.78;99783.22;4994270;28;1941;-64
2023/05/31 10:56:31;;;;;;;;;;;;;;;31.20;31.92;99780.94;4994316;28;824;-63
2023/05/31 10:58:58;;;;;;;;;;;;;;;30.51;33.17;99785.47;4994160;28;808;-64
2023/05/31 11:01:28;;;;;;;;;;;;;;;29.52;33.89;99793.50;4994204;28;879;-63
2023/05/31 11:03:57;;;;;;;;;;;;;;;28.58;34.60;99791.78;4994155;28;816;-63
2023/05/31 11:06:23;;;;;;;;;;;;;;;27.96;35.75;99800.69;4994078;28;851;-63
2023/05/31 11:09:08;;;;;;;;;;;;;;;27.96;35.79;99794.25;4994124;28;852;-63
2023/05/31 11:11:34;;;;;;;;;;;;;;;29.29;34.86;99784.44;5010773;28;1221;-63
2023/05/31 11:14:03;;;;;;;;;;;;;;;30.21;34.26;99786.41;5033318;28;816;-63
2023/05/31 11:16:35;;;;;;;;;;;;;;;29.76;33.45;99783.41;5033208;28;871;-63
2023/05/31 11:19:05;;;;;;;;;;;;;;;30.32;32.41;99779.78;5031939;28;1313;-62
2023/05/31 11:21:48;;;;;;;;;;;;;;;31.44;30.67;99765.69;5033140;28;835;-61
2023/05/31 11:24:33;;;;;;;;;;;;;;;31.31;30.64;99768.53;5033047;28;828;-62
2023/05/31 11:27:01;;;;;;;;;;;;;;;31.96;30.93;99760.44;5032984;28;847;-62
2023/05/31 11:29:46;;;;;;;;;;;;;;;32.91;30.66;99768.09;5033072;28;843;-62
2023/05/31 11:32:13;;;;;;;;;;;;;;;31.60;31.76;99772.41;5032103;28;875;-64
2023/05/31 11:34:56;;;;;;;;;;;;;;;30.43;32.11;99765.38;5032785;28;1882;-64
2023/05/31 11:37:26;;;;;;;;;;;;;;;30.98;30.62;99769.94;5033104;28;784;-61
2023/05/31 11:39:54;;;;;;;;;;;;;;;31.61;29.40;99773.16;5032709;28;828;-62
2023/05/31 11:42:21;;;;;;;;;;;;;;;32.39;27.35;99764.16;5032707;28;871;-60
2023/05/31 11:44:49;;;;;;;;;;;;;;;32.72;25.90;99768.31;5032743;28;812;-61
2023/05/31 11:47:25;;;;;;;;;;;;;;;33.31;26.02;99762.88;5032661;28;835;-60
2023/05/31 11:49:52;;;;;;;;;;;;;;;33.86;26.01;99761.81;5032613;28;879;-60
2023/05/31 11:52:20;;;;;;;;;;;;;;;34.30;26.73;99773.25;5032482;28;859;-60
2023/05/31 11:54:48;;;;;;;;;;;;;;;34.75;25.87;99771.78;5032395;28;1890;-61
2023/05/31 11:57:16;;;;;;;;;;;;;;;34.86;25.05;99762.00;5032572;28;946;-62
2023/05/31 11:59:43;;;;;;;;;;;;;;;34.73;25.03;99757.25;5032538;28;835;-59
2023/05/31 12:02:10;;;;;;;;;;;;;;;35.16;24.43;99746.13;5032390;28;835;-60
2023/05/31 12:04:38;;;;;;;;;;;;;;;34.94;24.32;99756.28;5032506;28;815;-60
2023/05/31 12:07:06;;;;;;;;;;;;;;;35.02;24.71;99753.41;5032614;28;819;-60
2023/05/31 12:09:34;;;;;;;;;;;;;;;34.82;24.77;99755.91;5032357;28;917;-59
2023/05/31 12:12:07;;;;;;;;;;;;;;;34.93;24.48;99758.41;5031983;28;1416;-60
2023/05/31 12:14:34;;;;;;;;;;;;;;;35.49;24.06;99752.00;5032092;28;1911;-60
2023/05/31 12:17:04;;;;;;;;;;;;;;;36.18;23.42;99751.69;5032153;28;838;-61
2023/05/31 12:19:31;;;;;;;;;;;;;;;36.58;23.03;99745.09;5031996;28;894;-60
2023/05/31 12:21:58;;;;;;;;;;;;;;;36.58;23.21;99745.09;5032091;28;855;-61
2023/05/31 12:24:24;;;;;;;;;;;;;;;36.92;22.96;99749.44;5030820;28;910;-61
2023/05/31 12:26:51;;;;;;;;;;;;;;;37.14;23.36;99750.59;5032053;28;828;-63
2023/05/31 12:29:18;;;;;;;;;;;;;;;37.19;22.67;99753.22;5031899;28;863;-66
2023/05/31 12:31:45;;;;;;;;;;;;;;;37.08;21.89;99747.91;5031818;28;816;-64
2023/05/31 12:34:12;;;;;;;;;;;;;;;37.02;22.05;99738.00;5032106;28;1882;-64
2023/05/31 12:36:45;;;;;;;;;;;;;;;36.95;22.03;99733.84;5031814;28;902;-64
2023/05/31 12:39:14;;;;;;;;;;;;;;;36.99;22.23;99734.19;5031677;28;894;-63
2023/05/31 12:41:44;;;;;;;;;;;;;;;37.37;22.42;99727.28;5031583;28;903;-63
2023/05/31 12:53:46;;;;;;;;;;;;;;;32.65;26.17;99712.56;5031982;28;596;-64
2023/05/31 12:56:33;;;;;;;;;;;;;;;35.25;24.07;99698.81;4970646;28;1078;-64
2023/05/31 12:59:00;;;;;;;;;;;;;;;36.55;23.06;99703.88;4970740;28;840;-63
2023/05/31 13:01:27;;;;;;;;;;;;;;;36.98;22.34;99703.88;4970946;28;939;-66
2023/05/31 13:03:54;;;;;;;;;;;;;;;36.10;22.08;99705.69;4970620;28;828;-65
2023/05/31 13:06:20;;;;;;;;;;;;;;;33.54;24.13;99705.69;4970649;28;1078;-62
2023/05/31 13:08:47;;;;;;;;;;;;;;;31.33;26.75;99708.81;4970441;28;840;-63
2023/05/31 13:11:13;;;;;;;;;;;;;;;30.15;28.55;99705.16;4970312;28;1239;-64
2023/05/31 13:13:39;;;;;;;;;;;;;;;30.87;28.20;99702.44;4970558;28;956;-62
2023/05/31 13:16:06;;;;;;;;;;;;;;;32.32;26.90;99697.75;4970560;28;1906;-63
2023/05/31 13:18:33;;;;;;;;;;;;;;;33.87;26.59;99700.28;4970453;28;829;-65
2023/05/31 13:20:59;;;;;;;;;;;;;;;34.86;24.76;99693.13;4970461;28;917;-64
2023/05/31 13:23:26;;;;;;;;;;;;;;;35.47;24.19;99697.97;4970467;28;825;-64
2023/05/31 13:25:53;;;;;;;;;;;;;;;35.98;23.29;99690.25;4970424;28;1008;-64
2023/05/31 13:28:24;;;;;;;;;;;;;;;36.58;23.25;99688.28;4970859;28;873;-64
2023/05/31 13:30:52;;;;;;;;;;;;;;;36.39;22.92;99685.94;4970412;28;844;-64
2023/05/31 13:33:18;;;;;;;;;;;;;;;36.03;22.54;99682.75;4997559;28;937;-65
2023/05/31 13:35:45;;;;;;;;;;;;;;;35.49;23.72;99685.91;5011511;28;1941;-64
2023/05/31 13:38:11;;;;;;;;;;;;;;;35.44;23.94;99692.59;5011321;28;848;-65
2023/05/31 13:40:39;;;;;;;;;;;;;;;35.45;24.29;99688.41;5011402;28;839;-65
2023/05/31 13:43:05;;;;;;;;;;;;;;;34.05;24.33;99704.13;5011384;28;868;-63
2023/05/31 13:45:32;;;;;;;;;;;;;;;32.41;25.56;99695.75;5011393;28;907;-65
2023/05/31 13:47:59;;;;;;;;;;;;;;;30.78;27.23;99692.19;5011318;28;875;-64
2023/05/31 13:50:25;;;;;;;;;;;;;;;30.23;28.80;99694.66;5010103;28;1247;-63
2023/05/31 13:52:53;;;;;;;;;;;;;;;29.70;29.19;99704.53;5011319;28;867;-63
2023/05/31 13:55:20;;;;;;;;;;;;;;;30.27;29.79;99703.66;5013469;28;1953;-63
2023/05/31 13:57:47;;;;;;;;;;;;;;;31.02;29.91;99705.50;5015041;28;812;-62
2023/05/31 14:00:14;;;;;;;;;;;;;;;30.28;29.61;99708.88;5015008;28;867;-62